createdAt,value
2019-03-28T00:00:50.817Z,8.27
2019-03-28T00:06:11.611Z,8.17
2019-03-28T00:11:32.466Z,8.17
2019-03-28T00:16:53.719Z,8.00
2019-03-28T00:22:23.712Z,7.95
2019-03-28T00:27:44.677Z,7.91
2019-03-28T00:33:05.931Z,7.86
2019-03-28T00:38:27.240Z,7.92
2019-03-28T00:43:48.854Z,7.81
2019-03-28T00:49:09.577Z,7.70
2019-03-28T00:54:30.719Z,7.70
2019-03-28T00:59:51.787Z,7.71
2019-03-28T01:05:13.407Z,7.72
2019-03-28T01:10:34.772Z,7.57
2019-03-28T01:15:56.129Z,7.60
2019-03-28T01:21:16.936Z,7.50
2019-03-28T01:26:37.742Z,7.53
2019-03-28T01:31:58.629Z,7.55
2019-03-28T01:37:19.833Z,7.45
2019-03-28T01:42:41.070Z,7.50
2019-03-28T01:48:02.328Z,7.41
2019-03-28T01:53:23.254Z,7.46
2019-03-28T01:58:44.396Z,7.45
2019-03-28T02:04:05.606Z,7.41
2019-03-28T02:09:26.120Z,7.35
2019-03-28T02:14:47.563Z,7.37
2019-03-28T02:20:09.294Z,7.30
2019-03-28T02:25:31.723Z,7.27
2019-03-28T02:30:52.988Z,7.24
2019-03-28T02:36:13.837Z,7.25
2019-03-28T02:41:35.387Z,7.17
2019-03-28T02:46:56.711Z,7.25
2019-03-28T02:52:18.110Z,7.22
2019-03-28T02:57:42.305Z,7.19
2019-03-28T03:03:01.895Z,7.23
2019-03-28T03:08:23.050Z,7.21
2019-03-28T03:13:44.328Z,7.23
2019-03-28T03:19:06.756Z,7.20
2019-03-28T03:24:27.685Z,7.18
2019-03-28T03:29:49.042Z,7.18
2019-03-28T03:35:10.773Z,7.19
2019-03-28T03:40:31.789Z,7.12
2019-03-28T03:45:52.927Z,7.19
2019-03-28T03:51:14.703Z,7.18
2019-03-28T03:56:35.851Z,7.09
2019-03-28T04:01:56.716Z,7.06
2019-03-28T04:07:17.945Z,7.09
2019-03-28T04:12:38.925Z,7.08
2019-03-28T04:17:59.542Z,7.02
2019-03-28T04:23:20.529Z,7.09
2019-03-28T04:28:41.395Z,7.12
2019-03-28T04:34:07.514Z,7.12
2019-03-28T04:39:26.829Z,7.11
2019-03-28T04:44:48.050Z,7.12
2019-03-28T04:50:10.437Z,7.12
2019-03-28T04:55:31.406Z,7.15
2019-03-28T05:00:52.461Z,7.17
2019-03-28T05:06:13.665Z,7.16
2019-03-28T05:11:34.750Z,7.19
2019-03-28T05:16:55.805Z,7.25
2019-03-28T05:22:16.789Z,7.24
2019-03-28T05:27:38.051Z,7.25
2019-03-28T05:32:58.976Z,7.34
2019-03-28T05:38:19.965Z,7.27
2019-03-28T05:43:40.647Z,7.26
2019-03-28T05:49:01.794Z,7.35
2019-03-28T05:54:22.847Z,7.41
2019-03-28T05:59:43.817Z,7.37
2019-03-28T06:05:05.541Z,7.42
2019-03-28T06:10:26.377Z,7.42
2019-03-28T06:15:47.497Z,7.48
2019-03-28T06:21:08.669Z,7.63
2019-03-28T06:26:29.629Z,7.67
2019-03-28T06:31:55.612Z,7.72
2019-03-28T06:37:13.623Z,7.74
2019-03-28T06:42:34.814Z,7.84
2019-03-28T06:47:56.203Z,7.77
2019-03-28T06:53:17.275Z,7.82
2019-03-28T06:58:38.022Z,7.95
2019-03-28T07:03:58.766Z,7.97
2019-03-28T07:09:19.956Z,8.04
2019-03-28T07:14:40.862Z,8.08
2019-03-28T07:20:02.235Z,8.13
2019-03-28T07:25:25.588Z,8.22
2019-03-28T07:30:46.068Z,8.30
2019-03-28T07:36:06.863Z,8.35
2019-03-28T07:41:27.847Z,8.49
2019-03-28T07:46:49.097Z,8.47
2019-03-28T07:52:10.246Z,8.48
2019-03-28T07:57:31.620Z,8.58
2019-03-28T08:02:52.659Z,8.73
2019-03-28T08:08:14.491Z,8.99
2019-03-28T08:13:35.434Z,9.24
2019-03-28T08:18:56.574Z,9.21
2019-03-28T08:24:17.382Z,9.08
2019-03-28T08:29:38.437Z,9.09
2019-03-28T08:34:59.687Z,9.22
2019-03-28T08:40:33.619Z,9.27
2019-03-28T08:45:54.906Z,9.24
2019-03-28T08:51:15.653Z,9.23
2019-03-28T08:56:36.716Z,9.47
2019-03-28T09:01:58.864Z,9.76
2019-03-28T09:07:20.176Z,10.03
2019-03-28T09:12:41.197Z,9.95
2019-03-28T09:18:02.768Z,9.76
2019-03-28T09:23:23.708Z,9.88
2019-03-28T09:28:44.852Z,9.80
2019-03-28T09:34:06.057Z,9.83
2019-03-28T09:39:26.988Z,9.78
2019-03-28T09:44:48.139Z,9.84
2019-03-28T09:50:09.517Z,10.04
2019-03-28T09:55:30.361Z,10.21
2019-03-28T10:01:02.780Z,10.34
2019-03-28T10:06:15.487Z,10.37
2019-03-28T10:11:36.269Z,10.48
2019-03-28T10:16:57.069Z,10.85
2019-03-28T10:22:17.872Z,10.89
2019-03-28T10:27:39.051Z,11.15
2019-03-28T10:33:00.036Z,10.94
2019-03-28T10:38:21.111Z,11.18
2019-03-28T10:43:42.543Z,11.48
2019-03-28T10:49:04.063Z,11.59
2019-03-28T10:54:25.827Z,11.70
2019-03-28T10:59:46.928Z,11.79
2019-03-28T11:05:08.771Z,11.63
2019-03-28T11:10:30.652Z,11.69
2019-03-28T11:15:51.562Z,11.79
2019-03-28T11:21:12.672Z,11.71
2019-03-28T11:26:34.022Z,11.82
2019-03-28T11:31:55.128Z,11.60
2019-03-28T11:37:25.917Z,11.77
2019-03-28T11:42:39.456Z,12.25
2019-03-28T11:48:00.584Z,11.99
2019-03-28T11:53:23.911Z,12.30
2019-03-28T11:58:48.230Z,12.62
2019-03-28T12:04:09.407Z,12.18
2019-03-28T12:09:30.621Z,12.83
2019-03-28T12:14:51.393Z,12.66
2019-03-28T12:20:12.758Z,12.55
2019-03-28T12:25:34.652Z,13.19
2019-03-28T12:30:55.894Z,13.16
2019-03-28T12:36:16.837Z,12.82
2019-03-28T12:41:39.992Z,12.73
2019-03-28T12:47:01.322Z,12.53
2019-03-28T12:52:22.606Z,12.34
2019-03-28T12:57:44.021Z,12.20
2019-03-28T13:03:06.343Z,12.08
2019-03-28T13:08:27.541Z,11.99
2019-03-28T13:13:48.953Z,12.09
2019-03-28T13:19:09.718Z,12.02
2019-03-28T13:24:31.062Z,11.92
2019-03-28T13:29:54.991Z,11.89
2019-03-28T13:35:15.040Z,11.81
2019-03-28T13:40:36.319Z,11.59
2019-03-28T13:45:57.513Z,11.62
2019-03-28T13:51:18.676Z,11.81
2019-03-28T13:56:39.827Z,12.22
2019-03-28T14:02:01.218Z,11.91
2019-03-28T14:07:22.860Z,11.76
2019-03-28T14:12:44.284Z,11.96
2019-03-28T14:18:05.342Z,11.95
2019-03-28T14:23:26.504Z,11.74
2019-03-28T14:28:47.659Z,11.58
2019-03-28T14:34:08.623Z,11.67
2019-03-28T14:39:29.649Z,11.67
2019-03-28T14:44:50.591Z,11.60
2019-03-28T14:50:12.339Z,11.49
2019-03-28T14:55:34.515Z,11.41
2019-03-28T15:00:55.545Z,11.41
2019-03-28T15:06:16.757Z,11.36
2019-03-28T15:11:37.520Z,11.65
2019-03-28T15:16:59.356Z,11.36
2019-03-28T15:22:19.947Z,11.42
2019-03-28T15:27:41.111Z,11.40
2019-03-28T15:33:02.368Z,11.52
2019-03-28T15:38:23.677Z,11.67
2019-03-28T15:43:44.564Z,11.56
2019-03-28T15:49:05.760Z,11.82
2019-03-28T15:54:26.338Z,11.33
2019-03-28T15:59:46.993Z,11.38
2019-03-28T16:05:08.404Z,11.56
2019-03-28T16:10:29.477Z,11.83
2019-03-28T16:15:50.457Z,11.49
2019-03-28T16:21:11.717Z,11.18
2019-03-28T16:26:32.827Z,10.92
2019-03-28T16:31:53.644Z,10.63
2019-03-28T16:37:15.018Z,10.55
2019-03-28T16:42:36.130Z,10.57
2019-03-28T16:47:56.999Z,10.62
2019-03-28T16:53:17.952Z,10.60
2019-03-28T16:58:38.584Z,10.55
2019-03-28T17:03:59.341Z,10.59
2019-03-28T17:09:21.261Z,10.63
2019-03-28T17:14:42.125Z,10.56
2019-03-28T17:20:03.439Z,10.55
2019-03-28T17:25:24.318Z,10.64
2019-03-28T17:30:45.674Z,10.58
2019-03-28T17:36:06.593Z,10.40
2019-03-28T17:41:27.704Z,10.28
2019-03-28T17:46:48.587Z,10.24
2019-03-28T17:52:09.527Z,10.22
2019-03-28T17:57:32.212Z,10.20
2019-03-28T18:02:53.486Z,10.17
2019-03-28T18:08:14.510Z,10.07
2019-03-28T18:13:35.937Z,10.04
2019-03-28T18:18:56.721Z,9.98
2019-03-28T18:24:17.578Z,9.95
2019-03-28T18:29:38.600Z,9.97
2019-03-28T18:35:05.548Z,9.91
2019-03-28T18:40:22.876Z,9.79
2019-03-28T18:45:44.023Z,9.76
2019-03-28T18:51:05.333Z,9.68
2019-03-28T18:56:26.490Z,9.60
2019-03-28T19:01:47.678Z,9.59
2019-03-28T19:07:09.829Z,9.51
2019-03-28T19:12:30.953Z,9.56
2019-03-28T19:17:52.070Z,9.50
2019-03-28T19:23:12.838Z,9.49
2019-03-28T19:28:34.263Z,9.49
2019-03-28T19:33:55.425Z,9.52
2019-03-28T19:39:26.233Z,9.52
2019-03-28T19:44:47.266Z,9.50
2019-03-28T19:50:13.221Z,9.51
2019-03-28T19:55:34.332Z,9.45
2019-03-28T20:00:56.665Z,9.46
2019-03-28T20:06:22.468Z,9.52
2019-03-28T20:11:40.624Z,9.44
2019-03-28T20:17:03.116Z,9.47
2019-03-28T20:22:24.127Z,9.45
2019-03-28T20:27:45.438Z,9.43
2019-03-28T20:33:06.694Z,9.40
2019-03-28T20:38:27.667Z,9.38
2019-03-28T20:43:48.910Z,9.41
2019-03-28T20:49:11.309Z,9.34
2019-03-28T20:54:33.238Z,9.34
2019-03-28T20:59:54.346Z,9.38
2019-03-28T21:05:15.598Z,9.33
2019-03-28T21:10:36.610Z,9.30
2019-03-28T21:15:57.415Z,9.30
2019-03-28T21:21:18.463Z,9.31
2019-03-28T21:26:39.131Z,9.30
2019-03-28T21:32:00.215Z,9.32
2019-03-28T21:37:22.580Z,9.32
2019-03-28T21:42:43.729Z,9.28
2019-03-28T21:48:05.000Z,9.32
2019-03-28T21:53:26.085Z,9.34
2019-03-28T21:58:46.779Z,9.30
2019-03-28T22:04:08.917Z,9.30
2019-03-28T22:09:30.042Z,9.38
2019-03-28T22:14:51.106Z,9.30
2019-03-28T22:20:12.450Z,9.27
2019-03-28T22:25:33.702Z,9.22
2019-03-28T22:30:54.758Z,9.16
2019-03-28T22:36:15.864Z,9.23
2019-03-28T22:41:37.125Z,9.16
2019-03-28T22:46:58.420Z,9.13
2019-03-28T22:52:19.615Z,9.16
2019-03-28T22:57:41.196Z,9.14
2019-03-28T23:03:04.068Z,9.12
2019-03-28T23:08:25.040Z,9.10
2019-03-28T23:13:45.631Z,9.15
2019-03-28T23:19:06.738Z,9.12
2019-03-28T23:24:27.932Z,9.08
2019-03-28T23:29:48.587Z,9.05
2019-03-28T23:35:10.289Z,9.08
2019-03-28T23:40:31.313Z,9.02
2019-03-28T23:45:53.543Z,9.07
2019-03-28T23:51:14.508Z,9.15
2019-03-28T23:56:36.908Z,9.13
